sensor_id;sensor_type;location;lat;lon;timestamp;temperature;humidity
37518;DHT22;23366;52.498;13.446;2023-08-06T00:02:23;18.40;99.90
37518;DHT22;23366;52.498;13.446;2023-08-06T00:04:48;18.30;99.90
37518;DHT22;23366;52.498;13.446;2023-08-06T00:07:13;18.30;99.90
37518;DHT22;23366;52.498;13.446;2023-08-06T00:09:39;18.30;99.90
37518;DHT22;23366;52.498;13.446;2023-08-06T00:12:05;18.30;99.90
37518;DHT22;23366;52.498;13.446;2023-08-06T00:14:30;18.30;99.90
37518;DHT22;23366;52.498;13.446;2023-08-06T00:16:56;18.30;99.90
37518;DHT22;23366;52.498;13.446;2023-08-06T00:19:21;18.30;99.90
37518;DHT22;23366;52.498;13.446;2023-08-06T00:21:47;18.30;99.90
37518;DHT22;23366;52.498;13.446;2023-08-06T00:24:12;18.30;99.90
37518;DHT22;23366;52.498;13.446;2023-08-06T00:26:38;18.30;99.90
37518;DHT22;23366;52.498;13.446;2023-08-06T00:29:03;18.30;99.90
37518;DHT22;23366;52.498;13.446;2023-08-06T00:31:29;18.30;99.90
37518;DHT22;23366;52.498;13.446;2023-08-06T00:33:54;18.30;99.90
37518;DHT22;23366;52.498;13.446;2023-08-06T00:36:19;18.20;99.90
37518;DHT22;23366;52.498;13.446;2023-08-06T00:38:45;18.20;99.90
37518;DHT22;23366;52.498;13.446;2023-08-06T00:41:10;18.10;99.90
37518;DHT22;23366;52.498;13.446;2023-08-06T00:43:36;18.20;99.90
37518;DHT22;23366;52.498;13.446;2023-08-06T00:46:02;18.10;99.90
37518;DHT22;23366;52.498;13.446;2023-08-06T00:48:27;18.10;99.90
37518;DHT22;23366;52.498;13.446;2023-08-06T00:50:53;18.10;99.90
37518;DHT22;23366;52.498;13.446;2023-08-06T00:53:19;18.10;99.90
37518;DHT22;23366;52.498;13.446;2023-08-06T00:55:45;18.10;99.90
37518;DHT22;23366;52.498;13.446;2023-08-06T00:58:11;18.10;99.90
37518;DHT22;23366;52.498;13.446;2023-08-06T01:00:36;18.00;99.90
37518;DHT22;23366;52.498;13.446;2023-08-06T01:03:03;18.00;99.90
37518;DHT22;23366;52.498;13.446;2023-08-06T01:05:28;17.90;99.90
37518;DHT22;23366;52.498;13.446;2023-08-06T01:11:00;17.80;99.90
37518;DHT22;23366;52.498;13.446;2023-08-06T01:13:38;17.70;99.90
37518;DHT22;23366;52.498;13.446;2023-08-06T01:16:07;17.70;99.90
37518;DHT22;23366;52.498;13.446;2023-08-06T01:18:33;17.60;99.90
37518;DHT22;23366;52.498;13.446;2023-08-06T01:20:59;17.60;99.90
37518;DHT22;23366;52.498;13.446;2023-08-06T01:23:24;17.60;99.90
37518;DHT22;23366;52.498;13.446;2023-08-06T01:26:12;17.60;99.90
37518;DHT22;23366;52.498;13.446;2023-08-06T01:31:43;17.50;99.90
37518;DHT22;23366;52.498;13.446;2023-08-06T01:34:16;17.60;99.90
37518;DHT22;23366;52.498;13.446;2023-08-06T01:36:42;17.50;99.90
37518;DHT22;23366;52.498;13.446;2023-08-06T01:39:08;17.40;99.90
37518;DHT22;23366;52.498;13.446;2023-08-06T01:41:34;17.40;99.90
37518;DHT22;23366;52.498;13.446;2023-08-06T01:43:59;17.40;99.90
37518;DHT22;23366;52.498;13.446;2023-08-06T01:46:25;17.30;99.90
37518;DHT22;23366;52.498;13.446;2023-08-06T01:48:50;17.20;99.90
37518;DHT22;23366;52.498;13.446;2023-08-06T01:51:16;17.20;99.90
37518;DHT22;23366;52.498;13.446;2023-08-06T01:53:41;17.20;99.90
37518;DHT22;23366;52.498;13.446;2023-08-06T01:56:06;17.20;99.90
37518;DHT22;23366;52.498;13.446;2023-08-06T01:58:32;17.20;99.90
37518;DHT22;23366;52.498;13.446;2023-08-06T02:00:57;17.10;99.90
37518;DHT22;23366;52.498;13.446;2023-08-06T02:03:23;17.00;99.90
37518;DHT22;23366;52.498;13.446;2023-08-06T02:05:48;17.10;99.90
37518;DHT22;23366;52.498;13.446;2023-08-06T02:08:14;17.00;99.90
37518;DHT22;23366;52.498;13.446;2023-08-06T02:10:39;17.00;99.90
37518;DHT22;23366;52.498;13.446;2023-08-06T02:13:05;17.00;99.90
37518;DHT22;23366;52.498;13.446;2023-08-06T02:15:30;17.00;99.90
37518;DHT22;23366;52.498;13.446;2023-08-06T02:17:56;17.00;99.90
37518;DHT22;23366;52.498;13.446;2023-08-06T02:20:21;17.00;99.90
37518;DHT22;23366;52.498;13.446;2023-08-06T02:22:47;17.00;99.90
37518;DHT22;23366;52.498;13.446;2023-08-06T02:25:12;17.00;99.90
37518;DHT22;23366;52.498;13.446;2023-08-06T02:27:37;16.90;99.90
37518;DHT22;23366;52.498;13.446;2023-08-06T02:30:04;17.00;99.90
37518;DHT22;23366;52.498;13.446;2023-08-06T02:32:30;16.90;99.90
37518;DHT22;23366;52.498;13.446;2023-08-06T02:34:57;16.90;99.90
37518;DHT22;23366;52.498;13.446;2023-08-06T02:37:22;16.90;99.90
37518;DHT22;23366;52.498;13.446;2023-08-06T02:39:47;16.90;99.90
37518;DHT22;23366;52.498;13.446;2023-08-06T02:42:13;16.80;99.90
37518;DHT22;23366;52.498;13.446;2023-08-06T02:44:38;16.80;99.90
37518;DHT22;23366;52.498;13.446;2023-08-06T02:47:04;16.70;99.90
37518;DHT22;23366;52.498;13.446;2023-08-06T02:49:30;16.70;99.90
37518;DHT22;23366;52.498;13.446;2023-08-06T02:51:55;16.70;99.90
37518;DHT22;23366;52.498;13.446;2023-08-06T02:54:21;16.70;99.90
37518;DHT22;23366;52.498;13.446;2023-08-06T02:56:46;16.60;99.90
37518;DHT22;23366;52.498;13.446;2023-08-06T02:59:12;16.60;99.90
37518;DHT22;23366;52.498;13.446;2023-08-06T03:01:38;16.60;99.90
37518;DHT22;23366;52.498;13.446;2023-08-06T03:04:03;16.60;99.90
37518;DHT22;23366;52.498;13.446;2023-08-06T03:06:29;16.60;99.90
37518;DHT22;23366;52.498;13.446;2023-08-06T03:08:54;16.50;99.90
37518;DHT22;23366;52.498;13.446;2023-08-06T03:11:20;16.50;99.90
37518;DHT22;23366;52.498;13.446;2023-08-06T03:13:47;16.50;99.90
37518;DHT22;23366;52.498;13.446;2023-08-06T03:16:12;16.50;99.90
37518;DHT22;23366;52.498;13.446;2023-08-06T03:18:38;16.40;99.90
37518;DHT22;23366;52.498;13.446;2023-08-06T03:21:03;16.50;99.90
37518;DHT22;23366;52.498;13.446;2023-08-06T03:23:29;16.50;99.90
37518;DHT22;23366;52.498;13.446;2023-08-06T03:25:54;16.50;99.90
37518;DHT22;23366;52.498;13.446;2023-08-06T03:28:19;16.40;99.90
37518;DHT22;23366;52.498;13.446;2023-08-06T03:30:45;16.50;99.90
37518;DHT22;23366;52.498;13.446;2023-08-06T03:33:10;16.50;99.90
37518;DHT22;23366;52.498;13.446;2023-08-06T03:35:36;16.50;99.90
37518;DHT22;23366;52.498;13.446;2023-08-06T03:38:01;16.50;99.90
37518;DHT22;23366;52.498;13.446;2023-08-06T03:40:27;16.50;99.90
37518;DHT22;23366;52.498;13.446;2023-08-06T03:42:52;16.50;99.90
37518;DHT22;23366;52.498;13.446;2023-08-06T03:45:18;16.50;99.90
37518;DHT22;23366;52.498;13.446;2023-08-06T03:47:43;16.50;99.90
37518;DHT22;23366;52.498;13.446;2023-08-06T03:50:09;16.50;99.90
37518;DHT22;23366;52.498;13.446;2023-08-06T03:52:35;16.50;99.90
37518;DHT22;23366;52.498;13.446;2023-08-06T03:55:00;16.50;99.90
37518;DHT22;23366;52.498;13.446;2023-08-06T03:57:25;16.50;99.90
37518;DHT22;23366;52.498;13.446;2023-08-06T03:59:51;16.50;99.90
37518;DHT22;23366;52.498;13.446;2023-08-06T04:02:16;16.50;99.90
37518;DHT22;23366;52.498;13.446;2023-08-06T04:04:42;16.50;99.90
37518;DHT22;23366;52.498;13.446;2023-08-06T04:07:07;16.50;99.90
37518;DHT22;23366;52.498;13.446;2023-08-06T04:09:33;16.40;99.90
37518;DHT22;23366;52.498;13.446;2023-08-06T04:11:58;16.40;99.90
37518;DHT22;23366;52.498;13.446;2023-08-06T04:14:27;16.40;99.90
37518;DHT22;23366;52.498;13.446;2023-08-06T04:16:53;16.40;99.90
37518;DHT22;23366;52.498;13.446;2023-08-06T04:19:18;16.40;99.90
37518;DHT22;23366;52.498;13.446;2023-08-06T04:21:44;16.50;99.90
37518;DHT22;23366;52.498;13.446;2023-08-06T04:24:09;16.50;99.90
37518;DHT22;23366;52.498;13.446;2023-08-06T04:26:34;16.50;99.90
37518;DHT22;23366;52.498;13.446;2023-08-06T04:29:00;16.40;99.90
37518;DHT22;23366;52.498;13.446;2023-08-06T04:31:25;16.40;99.90
37518;DHT22;23366;52.498;13.446;2023-08-06T04:33:51;16.40;99.90
37518;DHT22;23366;52.498;13.446;2023-08-06T04:36:16;16.50;99.90
37518;DHT22;23366;52.498;13.446;2023-08-06T04:38:42;16.50;99.90
37518;DHT22;23366;52.498;13.446;2023-08-06T04:41:10;16.50;99.90
37518;DHT22;23366;52.498;13.446;2023-08-06T04:43:36;16.50;99.90
37518;DHT22;23366;52.498;13.446;2023-08-06T04:46:01;16.50;99.90
37518;DHT22;23366;52.498;13.446;2023-08-06T04:48:27;16.60;99.90
37518;DHT22;23366;52.498;13.446;2023-08-06T04:50:52;16.50;99.90
37518;DHT22;23366;52.498;13.446;2023-08-06T04:53:18;16.60;99.90
37518;DHT22;23366;52.498;13.446;2023-08-06T04:55:43;16.60;99.90
37518;DHT22;23366;52.498;13.446;2023-08-06T04:58:09;16.60;99.90
37518;DHT22;23366;52.498;13.446;2023-08-06T05:00:36;16.60;99.90
37518;DHT22;23366;52.498;13.446;2023-08-06T05:03:01;16.60;99.90
37518;DHT22;23366;52.498;13.446;2023-08-06T05:05:28;16.60;99.90
37518;DHT22;23366;52.498;13.446;2023-08-06T05:07:54;16.60;99.90
37518;DHT22;23366;52.498;13.446;2023-08-06T05:10:20;16.70;99.90
37518;DHT22;23366;52.498;13.446;2023-08-06T05:12:45;16.70;99.90
37518;DHT22;23366;52.498;13.446;2023-08-06T05:15:11;16.70;99.90
37518;DHT22;23366;52.498;13.446;2023-08-06T05:17:36;16.70;99.90
37518;DHT22;23366;52.498;13.446;2023-08-06T05:20:02;16.70;99.90
37518;DHT22;23366;52.498;13.446;2023-08-06T05:22:28;16.70;99.90
37518;DHT22;23366;52.498;13.446;2023-08-06T05:24:53;16.70;99.90
37518;DHT22;23366;52.498;13.446;2023-08-06T05:27:18;16.70;99.90
37518;DHT22;23366;52.498;13.446;2023-08-06T05:29:45;16.70;99.90
37518;DHT22;23366;52.498;13.446;2023-08-06T05:32:10;16.70;99.90
37518;DHT22;23366;52.498;13.446;2023-08-06T05:34:36;16.80;99.90
37518;DHT22;23366;52.498;13.446;2023-08-06T05:37:02;16.80;99.90
37518;DHT22;23366;52.498;13.446;2023-08-06T05:39:28;16.80;99.90
37518;DHT22;23366;52.498;13.446;2023-08-06T05:41:53;16.80;99.90
37518;DHT22;23366;52.498;13.446;2023-08-06T05:44:20;16.90;99.90
37518;DHT22;23366;52.498;13.446;2023-08-06T05:46:45;16.90;99.90
37518;DHT22;23366;52.498;13.446;2023-08-06T05:49:11;17.00;99.90
37518;DHT22;23366;52.498;13.446;2023-08-06T05:51:38;17.00;99.90
37518;DHT22;23366;52.498;13.446;2023-08-06T05:54:04;17.00;99.90
37518;DHT22;23366;52.498;13.446;2023-08-06T05:56:29;17.00;99.90
37518;DHT22;23366;52.498;13.446;2023-08-06T05:58:54;17.00;99.90
37518;DHT22;23366;52.498;13.446;2023-08-06T06:01:20;17.00;99.90
37518;DHT22;23366;52.498;13.446;2023-08-06T06:03:45;17.00;99.90
37518;DHT22;23366;52.498;13.446;2023-08-06T06:06:11;17.00;99.90
37518;DHT22;23366;52.498;13.446;2023-08-06T06:08:36;17.00;99.90
37518;DHT22;23366;52.498;13.446;2023-08-06T06:11:02;17.00;99.90
37518;DHT22;23366;52.498;13.446;2023-08-06T06:13:27;17.00;99.90
37518;DHT22;23366;52.498;13.446;2023-08-06T06:15:56;17.00;99.90
37518;DHT22;23366;52.498;13.446;2023-08-06T06:18:22;17.10;99.90
37518;DHT22;23366;52.498;13.446;2023-08-06T06:20:48;17.10;99.90
37518;DHT22;23366;52.498;13.446;2023-08-06T06:23:13;17.10;99.90
37518;DHT22;23366;52.498;13.446;2023-08-06T06:25:49;17.10;99.90
37518;DHT22;23366;52.498;13.446;2023-08-06T06:28:17;17.10;99.90
37518;DHT22;23366;52.498;13.446;2023-08-06T06:30:42;17.10;99.90
37518;DHT22;23366;52.498;13.446;2023-08-06T06:33:08;17.10;99.90
37518;DHT22;23366;52.498;13.446;2023-08-06T06:35:34;17.20;99.90
37518;DHT22;23366;52.498;13.446;2023-08-06T06:37:59;17.20;99.90
37518;DHT22;23366;52.498;13.446;2023-08-06T06:40:25;17.20;99.90
37518;DHT22;23366;52.498;13.446;2023-08-06T06:42:51;17.30;99.90
37518;DHT22;23366;52.498;13.446;2023-08-06T06:45:16;17.40;99.90
37518;DHT22;23366;52.498;13.446;2023-08-06T06:47:42;17.40;99.90
37518;DHT22;23366;52.498;13.446;2023-08-06T06:50:07;17.40;99.90
37518;DHT22;23366;52.498;13.446;2023-08-06T06:52:33;17.40;99.90
37518;DHT22;23366;52.498;13.446;2023-08-06T06:54:58;17.50;99.90
37518;DHT22;23366;52.498;13.446;2023-08-06T06:57:24;17.50;99.90
37518;DHT22;23366;52.498;13.446;2023-08-06T06:59:49;17.50;99.90
37518;DHT22;23366;52.498;13.446;2023-08-06T07:02:15;17.60;99.90
37518;DHT22;23366;52.498;13.446;2023-08-06T07:04:40;17.60;99.90
37518;DHT22;23366;52.498;13.446;2023-08-06T07:07:06;17.60;99.90
37518;DHT22;23366;52.498;13.446;2023-08-06T07:09:31;17.70;99.90
37518;DHT22;23366;52.498;13.446;2023-08-06T07:11:57;17.70;99.90
37518;DHT22;23366;52.498;13.446;2023-08-06T07:14:25;17.80;99.90
37518;DHT22;23366;52.498;13.446;2023-08-06T07:16:50;17.80;99.90
37518;DHT22;23366;52.498;13.446;2023-08-06T07:19:16;17.80;99.90
37518;DHT22;23366;52.498;13.446;2023-08-06T07:21:41;17.80;99.90
37518;DHT22;23366;52.498;13.446;2023-08-06T07:24:07;17.80;99.90
37518;DHT22;23366;52.498;13.446;2023-08-06T07:26:32;17.80;99.90
37518;DHT22;23366;52.498;13.446;2023-08-06T07:28:57;17.90;99.90
37518;DHT22;23366;52.498;13.446;2023-08-06T07:31:23;17.90;99.90
37518;DHT22;23366;52.498;13.446;2023-08-06T07:33:48;18.00;99.90
37518;DHT22;23366;52.498;13.446;2023-08-06T07:36:14;18.00;99.90
37518;DHT22;23366;52.498;13.446;2023-08-06T07:38:41;18.00;99.90
37518;DHT22;23366;52.498;13.446;2023-08-06T07:41:06;18.10;99.90
37518;DHT22;23366;52.498;13.446;2023-08-06T07:43:32;18.10;99.90
37518;DHT22;23366;52.498;13.446;2023-08-06T07:45:58;18.10;99.90
37518;DHT22;23366;52.498;13.446;2023-08-06T07:48:25;18.20;99.90
37518;DHT22;23366;52.498;13.446;2023-08-06T07:50:54;18.20;99.90
37518;DHT22;23366;52.498;13.446;2023-08-06T07:53:21;18.20;99.90
37518;DHT22;23366;52.498;13.446;2023-08-06T07:55:51;18.10;99.90
37518;DHT22;23366;52.498;13.446;2023-08-06T07:58:17;18.10;99.90
37518;DHT22;23366;52.498;13.446;2023-08-06T08:00:43;18.10;99.90
37518;DHT22;23366;52.498;13.446;2023-08-06T08:03:11;18.10;99.90
37518;DHT22;23366;52.498;13.446;2023-08-06T08:05:37;18.10;99.90
37518;DHT22;23366;52.498;13.446;2023-08-06T08:08:02;18.00;99.90
37518;DHT22;23366;52.498;13.446;2023-08-06T08:10:28;18.00;99.90
37518;DHT22;23366;52.498;13.446;2023-08-06T08:12:53;18.10;99.90
37518;DHT22;23366;52.498;13.446;2023-08-06T08:15:19;18.10;99.90
37518;DHT22;23366;52.498;13.446;2023-08-06T08:17:45;18.00;99.90
37518;DHT22;23366;52.498;13.446;2023-08-06T08:20:15;18.10;99.90
37518;DHT22;23366;52.498;13.446;2023-08-06T08:22:40;18.00;99.90
37518;DHT22;23366;52.498;13.446;2023-08-06T08:25:06;18.10;99.90
37518;DHT22;23366;52.498;13.446;2023-08-06T08:27:31;18.20;99.90
37518;DHT22;23366;52.498;13.446;2023-08-06T08:29:57;18.10;99.90
37518;DHT22;23366;52.498;13.446;2023-08-06T08:32:22;18.20;99.90
37518;DHT22;23366;52.498;13.446;2023-08-06T08:34:48;18.20;99.90
37518;DHT22;23366;52.498;13.446;2023-08-06T08:37:14;18.10;99.90
37518;DHT22;23366;52.498;13.446;2023-08-06T08:39:39;18.10;99.90
37518;DHT22;23366;52.498;13.446;2023-08-06T08:42:06;18.10;99.90
37518;DHT22;23366;52.498;13.446;2023-08-06T08:44:32;18.10;99.90
37518;DHT22;23366;52.498;13.446;2023-08-06T08:46:59;18.20;99.90
37518;DHT22;23366;52.498;13.446;2023-08-06T08:49:26;18.30;99.90
37518;DHT22;23366;52.498;13.446;2023-08-06T08:51:53;18.40;99.90
37518;DHT22;23366;52.498;13.446;2023-08-06T08:54:18;18.50;99.90
37518;DHT22;23366;52.498;13.446;2023-08-06T08:56:45;18.60;99.90
37518;DHT22;23366;52.498;13.446;2023-08-06T08:59:11;18.70;99.90
37518;DHT22;23366;52.498;13.446;2023-08-06T09:01:37;18.70;99.90
37518;DHT22;23366;52.498;13.446;2023-08-06T09:04:04;18.80;99.90
37518;DHT22;23366;52.498;13.446;2023-08-06T09:06:32;18.80;99.90
37518;DHT22;23366;52.498;13.446;2023-08-06T09:09:05;18.90;99.90
37518;DHT22;23366;52.498;13.446;2023-08-06T09:11:35;19.00;99.90
37518;DHT22;23366;52.498;13.446;2023-08-06T09:14:06;19.10;99.90
37518;DHT22;23366;52.498;13.446;2023-08-06T09:16:34;19.10;99.90
37518;DHT22;23366;52.498;13.446;2023-08-06T09:19:10;19.20;99.90
37518;DHT22;23366;52.498;13.446;2023-08-06T09:21:38;19.30;99.90
37518;DHT22;23366;52.498;13.446;2023-08-06T09:26:34;19.30;99.90
37518;DHT22;23366;52.498;13.446;2023-08-06T09:29:00;19.30;99.90
37518;DHT22;23366;52.498;13.446;2023-08-06T09:31:32;19.30;99.90
37518;DHT22;23366;52.498;13.446;2023-08-06T09:34:00;19.30;99.90
37518;DHT22;23366;52.498;13.446;2023-08-06T09:36:27;19.40;99.90
37518;DHT22;23366;52.498;13.446;2023-08-06T09:38:52;19.40;99.90
37518;DHT22;23366;52.498;13.446;2023-08-06T09:41:27;19.40;99.90
37518;DHT22;23366;52.498;13.446;2023-08-06T09:43:53;19.40;99.90
37518;DHT22;23366;52.498;13.446;2023-08-06T09:46:19;19.40;99.90
37518;DHT22;23366;52.498;13.446;2023-08-06T09:48:46;19.40;99.90
37518;DHT22;23366;52.498;13.446;2023-08-06T09:51:13;19.40;99.90
37518;DHT22;23366;52.498;13.446;2023-08-06T09:53:40;19.40;99.90
37518;DHT22;23366;52.498;13.446;2023-08-06T09:56:06;19.40;99.90
37518;DHT22;23366;52.498;13.446;2023-08-06T09:58:32;19.40;99.90
37518;DHT22;23366;52.498;13.446;2023-08-06T10:00:59;19.50;99.90
37518;DHT22;23366;52.498;13.446;2023-08-06T10:03:25;19.50;99.90
37518;DHT22;23366;52.498;13.446;2023-08-06T10:05:51;19.50;99.90
37518;DHT22;23366;52.498;13.446;2023-08-06T10:08:17;19.40;99.90
37518;DHT22;23366;52.498;13.446;2023-08-06T10:10:43;19.30;99.90
37518;DHT22;23366;52.498;13.446;2023-08-06T10:13:10;19.30;99.90
37518;DHT22;23366;52.498;13.446;2023-08-06T10:15:38;19.20;99.90
37518;DHT22;23366;52.498;13.446;2023-08-06T10:18:04;19.20;99.90
37518;DHT22;23366;52.498;13.446;2023-08-06T10:20:34;19.10;99.90
37518;DHT22;23366;52.498;13.446;2023-08-06T10:23:04;19.10;99.90
37518;DHT22;23366;52.498;13.446;2023-08-06T10:25:34;19.10;99.90
37518;DHT22;23366;52.498;13.446;2023-08-06T10:28:06;19.10;99.90
37518;DHT22;23366;52.498;13.446;2023-08-06T10:30:33;19.10;99.90
37518;DHT22;23366;52.498;13.446;2023-08-06T10:33:03;19.10;99.90
37518;DHT22;23366;52.498;13.446;2023-08-06T10:35:35;19.10;99.90
37518;DHT22;23366;52.498;13.446;2023-08-06T10:38:09;19.10;99.90
37518;DHT22;23366;52.498;13.446;2023-08-06T10:40:39;19.20;99.90
37518;DHT22;23366;52.498;13.446;2023-08-06T10:43:05;19.30;99.90
37518;DHT22;23366;52.498;13.446;2023-08-06T10:45:37;19.30;99.90
37518;DHT22;23366;52.498;13.446;2023-08-06T10:48:03;19.30;99.90
37518;DHT22;23366;52.498;13.446;2023-08-06T10:50:29;19.30;99.90
37518;DHT22;23366;52.498;13.446;2023-08-06T10:52:56;19.30;99.90
37518;DHT22;23366;52.498;13.446;2023-08-06T10:55:31;19.30;99.90
37518;DHT22;23366;52.498;13.446;2023-08-06T10:57:57;19.20;99.90
37518;DHT22;23366;52.498;13.446;2023-08-06T11:00:23;19.20;99.90
37518;DHT22;23366;52.498;13.446;2023-08-06T11:02:50;19.20;99.90
37518;DHT22;23366;52.498;13.446;2023-08-06T11:05:15;19.20;99.90
37518;DHT22;23366;52.498;13.446;2023-08-06T11:07:41;19.20;99.90
37518;DHT22;23366;52.498;13.446;2023-08-06T11:10:09;19.30;99.90
37518;DHT22;23366;52.498;13.446;2023-08-06T11:12:35;19.30;99.90
37518;DHT22;23366;52.498;13.446;2023-08-06T11:15:02;19.30;99.90
37518;DHT22;23366;52.498;13.446;2023-08-06T11:17:29;19.30;99.90
37518;DHT22;23366;52.498;13.446;2023-08-06T11:19:55;19.40;99.90
37518;DHT22;23366;52.498;13.446;2023-08-06T11:22:21;19.40;99.90
37518;DHT22;23366;52.498;13.446;2023-08-06T11:24:48;19.40;99.90
37518;DHT22;23366;52.498;13.446;2023-08-06T11:27:14;19.50;99.90
37518;DHT22;23366;52.498;13.446;2023-08-06T11:29:41;19.50;99.90
37518;DHT22;23366;52.498;13.446;2023-08-06T11:32:08;19.50;99.90
37518;DHT22;23366;52.498;13.446;2023-08-06T11:34:34;19.50;99.90
37518;DHT22;23366;52.498;13.446;2023-08-06T11:36:59;19.60;99.90
37518;DHT22;23366;52.498;13.446;2023-08-06T11:39:25;19.60;99.90
37518;DHT22;23366;52.498;13.446;2023-08-06T11:41:51;19.60;99.90
37518;DHT22;23366;52.498;13.446;2023-08-06T11:44:19;19.60;99.90
37518;DHT22;23366;52.498;13.446;2023-08-06T11:46:57;19.60;99.90
37518;DHT22;23366;52.498;13.446;2023-08-06T11:49:38;19.60;99.90
37518;DHT22;23366;52.498;13.446;2023-08-06T11:52:22;19.60;99.90
37518;DHT22;23366;52.498;13.446;2023-08-06T11:55:05;19.60;99.90
37518;DHT22;23366;52.498;13.446;2023-08-06T11:57:33;19.60;99.90
37518;DHT22;23366;52.498;13.446;2023-08-06T12:00:08;19.60;99.90
37518;DHT22;23366;52.498;13.446;2023-08-06T12:02:34;19.70;99.90
37518;DHT22;23366;52.498;13.446;2023-08-06T12:05:14;19.80;99.90
37518;DHT22;23366;52.498;13.446;2023-08-06T12:07:42;19.90;99.90
37518;DHT22;23366;52.498;13.446;2023-08-06T12:10:08;19.90;99.90
37518;DHT22;23366;52.498;13.446;2023-08-06T12:12:34;20.00;99.90
37518;DHT22;23366;52.498;13.446;2023-08-06T12:15:00;20.10;99.90
37518;DHT22;23366;52.498;13.446;2023-08-06T12:17:26;20.10;99.90
37518;DHT22;23366;52.498;13.446;2023-08-06T12:19:52;20.10;99.90
37518;DHT22;23366;52.498;13.446;2023-08-06T12:22:17;20.10;99.90
37518;DHT22;23366;52.498;13.446;2023-08-06T12:24:44;20.20;99.90
37518;DHT22;23366;52.498;13.446;2023-08-06T12:27:10;20.20;99.90
37518;DHT22;23366;52.498;13.446;2023-08-06T12:29:37;20.20;99.90
37518;DHT22;23366;52.498;13.446;2023-08-06T12:32:03;20.20;99.90
37518;DHT22;23366;52.498;13.446;2023-08-06T12:34:28;20.20;99.90
37518;DHT22;23366;52.498;13.446;2023-08-06T12:36:54;20.10;99.90
37518;DHT22;23366;52.498;13.446;2023-08-06T12:39:19;20.10;99.90
37518;DHT22;23366;52.498;13.446;2023-08-06T12:41:45;20.10;99.90
37518;DHT22;23366;52.498;13.446;2023-08-06T12:44:12;20.10;99.90
37518;DHT22;23366;52.498;13.446;2023-08-06T12:46:37;20.00;99.90
37518;DHT22;23366;52.498;13.446;2023-08-06T12:49:03;20.00;99.90
37518;DHT22;23366;52.498;13.446;2023-08-06T12:51:29;19.90;99.90
37518;DHT22;23366;52.498;13.446;2023-08-06T12:53:54;19.80;99.90
37518;DHT22;23366;52.498;13.446;2023-08-06T12:56:20;19.80;99.90
37518;DHT22;23366;52.498;13.446;2023-08-06T12:58:45;19.70;99.90
37518;DHT22;23366;52.498;13.446;2023-08-06T13:01:10;19.70;99.90
37518;DHT22;23366;52.498;13.446;2023-08-06T13:03:36;19.60;99.90
37518;DHT22;23366;52.498;13.446;2023-08-06T13:06:01;19.70;99.90
37518;DHT22;23366;52.498;13.446;2023-08-06T13:08:27;19.60;99.90
37518;DHT22;23366;52.498;13.446;2023-08-06T13:10:52;19.60;99.90
37518;DHT22;23366;52.498;13.446;2023-08-06T13:13:18;19.60;99.90
37518;DHT22;23366;52.498;13.446;2023-08-06T13:15:43;19.60;99.90
37518;DHT22;23366;52.498;13.446;2023-08-06T13:18:09;19.60;99.90
37518;DHT22;23366;52.498;13.446;2023-08-06T13:20:37;19.60;99.90
37518;DHT22;23366;52.498;13.446;2023-08-06T13:23:03;19.60;99.90
37518;DHT22;23366;52.498;13.446;2023-08-06T13:25:29;19.60;99.90
37518;DHT22;23366;52.498;13.446;2023-08-06T13:27:54;19.60;99.90
37518;DHT22;23366;52.498;13.446;2023-08-06T13:30:20;19.60;99.90
37518;DHT22;23366;52.498;13.446;2023-08-06T13:32:46;19.60;99.90
37518;DHT22;23366;52.498;13.446;2023-08-06T13:35:12;19.60;99.90
37518;DHT22;23366;52.498;13.446;2023-08-06T13:37:37;19.50;99.90
37518;DHT22;23366;52.498;13.446;2023-08-06T13:40:03;19.50;99.90
37518;DHT22;23366;52.498;13.446;2023-08-06T13:42:29;19.50;99.90
37518;DHT22;23366;52.498;13.446;2023-08-06T13:44:55;19.50;99.90
37518;DHT22;23366;52.498;13.446;2023-08-06T13:47:27;19.50;99.90
37518;DHT22;23366;52.498;13.446;2023-08-06T13:49:53;19.50;99.90
37518;DHT22;23366;52.498;13.446;2023-08-06T13:52:18;19.50;99.90
37518;DHT22;23366;52.498;13.446;2023-08-06T13:54:44;19.50;99.90
37518;DHT22;23366;52.498;13.446;2023-08-06T13:57:09;19.50;99.90
37518;DHT22;23366;52.498;13.446;2023-08-06T13:59:35;19.50;99.90
37518;DHT22;23366;52.498;13.446;2023-08-06T14:02:03;19.50;99.90
37518;DHT22;23366;52.498;13.446;2023-08-06T14:04:29;19.50;99.90
37518;DHT22;23366;52.498;13.446;2023-08-06T14:06:54;19.50;99.90
37518;DHT22;23366;52.498;13.446;2023-08-06T14:09:20;19.50;99.90
37518;DHT22;23366;52.498;13.446;2023-08-06T14:11:45;19.50;99.90
37518;DHT22;23366;52.498;13.446;2023-08-06T14:14:11;19.50;99.90
37518;DHT22;23366;52.498;13.446;2023-08-06T14:16:37;19.50;99.90
37518;DHT22;23366;52.498;13.446;2023-08-06T14:19:03;19.40;99.90
37518;DHT22;23366;52.498;13.446;2023-08-06T14:21:28;19.50;99.90
37518;DHT22;23366;52.498;13.446;2023-08-06T14:23:54;19.40;99.90
37518;DHT22;23366;52.498;13.446;2023-08-06T14:26:19;19.30;99.90
37518;DHT22;23366;52.498;13.446;2023-08-06T14:28:45;19.30;99.90
37518;DHT22;23366;52.498;13.446;2023-08-06T14:31:11;19.30;99.90
37518;DHT22;23366;52.498;13.446;2023-08-06T14:33:37;19.20;99.90
37518;DHT22;23366;52.498;13.446;2023-08-06T14:36:02;19.10;99.90
37518;DHT22;23366;52.498;13.446;2023-08-06T14:38:28;19.10;99.90
37518;DHT22;23366;52.498;13.446;2023-08-06T14:40:53;19.00;99.90
37518;DHT22;23366;52.498;13.446;2023-08-06T14:43:19;19.00;99.90
37518;DHT22;23366;52.498;13.446;2023-08-06T14:45:45;18.90;99.90
37518;DHT22;23366;52.498;13.446;2023-08-06T14:48:10;18.90;99.90
37518;DHT22;23366;52.498;13.446;2023-08-06T14:50:36;18.90;99.90
37518;DHT22;23366;52.498;13.446;2023-08-06T14:53:05;18.80;99.90
37518;DHT22;23366;52.498;13.446;2023-08-06T14:55:31;18.90;99.90
37518;DHT22;23366;52.498;13.446;2023-08-06T14:57:57;18.80;99.90
37518;DHT22;23366;52.498;13.446;2023-08-06T15:00:23;18.80;99.90
37518;DHT22;23366;52.498;13.446;2023-08-06T15:02:48;18.80;99.90
37518;DHT22;23366;52.498;13.446;2023-08-06T15:05:14;18.70;99.90
37518;DHT22;23366;52.498;13.446;2023-08-06T15:07:39;18.70;99.90
37518;DHT22;23366;52.498;13.446;2023-08-06T15:10:05;18.60;99.90
37518;DHT22;23366;52.498;13.446;2023-08-06T15:12:31;18.60;99.90
37518;DHT22;23366;52.498;13.446;2023-08-06T15:14:58;18.60;99.90
37518;DHT22;23366;52.498;13.446;2023-08-06T15:17:25;18.60;99.90
37518;DHT22;23366;52.498;13.446;2023-08-06T15:19:53;18.70;99.90